sensor_id;sensor_type;location;lat;lon;timestamp;temperature;humidity
18083;DHT22;9168;51.194;6.840;2022-09-09T00:01:11;17.40;99.90
18083;DHT22;9168;51.194;6.840;2022-09-09T00:03:50;17.30;99.90
18083;DHT22;9168;51.194;6.840;2022-09-09T00:06:23;17.30;99.90
18083;DHT22;9168;51.194;6.840;2022-09-09T00:08:59;17.30;99.90
18083;DHT22;9168;51.194;6.840;2022-09-09T00:11:35;17.30;99.90
18083;DHT22;9168;51.194;6.840;2022-09-09T00:14:11;17.20;99.90
18083;DHT22;9168;51.194;6.840;2022-09-09T00:16:41;17.20;99.90
18083;DHT22;9168;51.194;6.840;2022-09-09T00:19:20;17.10;99.90
18083;DHT22;9168;51.194;6.840;2022-09-09T00:21:57;17.00;99.90
18083;DHT22;9168;51.194;6.840;2022-09-09T00:24:29;17.00;99.90
18083;DHT22;9168;51.194;6.840;2022-09-09T00:27:04;16.90;99.90
18083;DHT22;9168;51.194;6.840;2022-09-09T00:29:36;16.90;99.90
18083;DHT22;9168;51.194;6.840;2022-09-09T00:32:12;16.90;99.90
18083;DHT22;9168;51.194;6.840;2022-09-09T00:34:47;16.80;99.90
18083;DHT22;9168;51.194;6.840;2022-09-09T00:37:15;16.80;99.90
18083;DHT22;9168;51.194;6.840;2022-09-09T00:39:45;16.80;99.90
18083;DHT22;9168;51.194;6.840;2022-09-09T00:42:15;16.90;99.90
18083;DHT22;9168;51.194;6.840;2022-09-09T00:44:56;16.90;99.90
18083;DHT22;9168;51.194;6.840;2022-09-09T00:47:39;16.90;99.90
18083;DHT22;9168;51.194;6.840;2022-09-09T00:50:28;16.90;99.90
18083;DHT22;9168;51.194;6.840;2022-09-09T00:53:15;17.00;99.90
18083;DHT22;9168;51.194;6.840;2022-09-09T00:55:49;17.00;99.90
18083;DHT22;9168;51.194;6.840;2022-09-09T00:58:18;17.10;99.90
18083;DHT22;9168;51.194;6.840;2022-09-09T01:00:49;17.10;99.90
18083;DHT22;9168;51.194;6.840;2022-09-09T01:03:24;17.10;99.90
18083;DHT22;9168;51.194;6.840;2022-09-09T01:06:01;17.10;99.90
18083;DHT22;9168;51.194;6.840;2022-09-09T01:09:04;17.00;99.90
18083;DHT22;9168;51.194;6.840;2022-09-09T01:11:43;17.10;99.90
18083;DHT22;9168;51.194;6.840;2022-09-09T01:14:20;17.00;99.90
18083;DHT22;9168;51.194;6.840;2022-09-09T01:16:54;17.10;99.90
18083;DHT22;9168;51.194;6.840;2022-09-09T01:19:33;17.10;99.90
18083;DHT22;9168;51.194;6.840;2022-09-09T01:22:11;17.10;99.90
18083;DHT22;9168;51.194;6.840;2022-09-09T01:24:48;17.10;99.90
18083;DHT22;9168;51.194;6.840;2022-09-09T01:27:20;17.20;99.90
18083;DHT22;9168;51.194;6.840;2022-09-09T01:29:48;17.10;99.90
18083;DHT22;9168;51.194;6.840;2022-09-09T01:32:41;17.20;99.90
18083;DHT22;9168;51.194;6.840;2022-09-09T01:35:12;17.20;99.90
18083;DHT22;9168;51.194;6.840;2022-09-09T01:37:41;17.10;99.90
18083;DHT22;9168;51.194;6.840;2022-09-09T01:40:08;17.10;99.90
18083;DHT22;9168;51.194;6.840;2022-09-09T01:42:37;17.10;99.90
18083;DHT22;9168;51.194;6.840;2022-09-09T01:45:05;17.20;99.90
18083;DHT22;9168;51.194;6.840;2022-09-09T01:47:32;17.20;99.90
18083;DHT22;9168;51.194;6.840;2022-09-09T01:49:59;17.20;99.90
18083;DHT22;9168;51.194;6.840;2022-09-09T01:52:28;17.10;99.90
18083;DHT22;9168;51.194;6.840;2022-09-09T01:54:56;17.10;99.90
18083;DHT22;9168;51.194;6.840;2022-09-09T01:57:25;17.10;99.90
18083;DHT22;9168;51.194;6.840;2022-09-09T02:00:01;17.20;99.90
18083;DHT22;9168;51.194;6.840;2022-09-09T02:02:35;17.20;99.90
18083;DHT22;9168;51.194;6.840;2022-09-09T02:05:11;17.20;99.90
18083;DHT22;9168;51.194;6.840;2022-09-09T02:07:40;17.20;99.90
18083;DHT22;9168;51.194;6.840;2022-09-09T02:10:11;17.20;99.90
18083;DHT22;9168;51.194;6.840;2022-09-09T02:12:42;17.20;99.90
18083;DHT22;9168;51.194;6.840;2022-09-09T02:15:18;17.30;99.90
18083;DHT22;9168;51.194;6.840;2022-09-09T02:17:49;17.30;99.90
18083;DHT22;9168;51.194;6.840;2022-09-09T02:20:18;17.40;99.90
18083;DHT22;9168;51.194;6.840;2022-09-09T02:22:48;17.40;99.90
18083;DHT22;9168;51.194;6.840;2022-09-09T02:25:18;17.50;99.90
18083;DHT22;9168;51.194;6.840;2022-09-09T02:27:47;17.50;99.90
18083;DHT22;9168;51.194;6.840;2022-09-09T02:30:17;17.50;99.90
18083;DHT22;9168;51.194;6.840;2022-09-09T02:32:46;17.50;99.90
18083;DHT22;9168;51.194;6.840;2022-09-09T02:35:15;17.50;99.90
18083;DHT22;9168;51.194;6.840;2022-09-09T02:37:44;17.50;99.90
18083;DHT22;9168;51.194;6.840;2022-09-09T02:40:13;17.50;99.90
18083;DHT22;9168;51.194;6.840;2022-09-09T02:42:42;17.60;99.90
18083;DHT22;9168;51.194;6.840;2022-09-09T02:45:10;17.60;99.90
18083;DHT22;9168;51.194;6.840;2022-09-09T02:47:44;17.60;99.90
18083;DHT22;9168;51.194;6.840;2022-09-09T02:50:17;17.60;99.90
18083;DHT22;9168;51.194;6.840;2022-09-09T02:52:54;17.60;99.90
18083;DHT22;9168;51.194;6.840;2022-09-09T02:55:38;17.50;99.90
18083;DHT22;9168;51.194;6.840;2022-09-09T02:58:08;17.60;99.90
18083;DHT22;9168;51.194;6.840;2022-09-09T03:00:37;17.60;99.90
18083;DHT22;9168;51.194;6.840;2022-09-09T03:03:07;17.60;99.90
18083;DHT22;9168;51.194;6.840;2022-09-09T03:05:34;17.60;99.90
18083;DHT22;9168;51.194;6.840;2022-09-09T03:08:02;17.60;99.90
18083;DHT22;9168;51.194;6.840;2022-09-09T03:10:29;17.60;99.90
18083;DHT22;9168;51.194;6.840;2022-09-09T03:12:56;17.60;99.90
18083;DHT22;9168;51.194;6.840;2022-09-09T03:15:22;17.60;99.90
18083;DHT22;9168;51.194;6.840;2022-09-09T03:17:49;17.60;99.90
18083;DHT22;9168;51.194;6.840;2022-09-09T03:20:18;17.60;99.90
18083;DHT22;9168;51.194;6.840;2022-09-09T03:22:45;17.50;99.90
18083;DHT22;9168;51.194;6.840;2022-09-09T03:25:12;17.50;99.90
18083;DHT22;9168;51.194;6.840;2022-09-09T03:27:39;17.50;99.90
18083;DHT22;9168;51.194;6.840;2022-09-09T03:30:06;17.50;99.90
18083;DHT22;9168;51.194;6.840;2022-09-09T03:32:33;17.50;99.90
18083;DHT22;9168;51.194;6.840;2022-09-09T03:35:00;17.50;99.90
18083;DHT22;9168;51.194;6.840;2022-09-09T03:37:29;17.60;99.90
18083;DHT22;9168;51.194;6.840;2022-09-09T03:39:57;17.60;99.90
18083;DHT22;9168;51.194;6.840;2022-09-09T03:42:25;17.60;99.90
18083;DHT22;9168;51.194;6.840;2022-09-09T03:44:52;17.50;99.90
18083;DHT22;9168;51.194;6.840;2022-09-09T03:47:20;17.60;99.90
18083;DHT22;9168;51.194;6.840;2022-09-09T03:49:48;17.60;99.90
18083;DHT22;9168;51.194;6.840;2022-09-09T03:52:15;17.60;99.90
18083;DHT22;9168;51.194;6.840;2022-09-09T03:54:43;17.60;99.90
18083;DHT22;9168;51.194;6.840;2022-09-09T03:57:10;17.60;99.90
18083;DHT22;9168;51.194;6.840;2022-09-09T03:59:37;17.60;99.90
18083;DHT22;9168;51.194;6.840;2022-09-09T04:02:04;17.60;99.90
18083;DHT22;9168;51.194;6.840;2022-09-09T04:04:31;17.70;99.90
18083;DHT22;9168;51.194;6.840;2022-09-09T04:06:58;17.70;99.90
18083;DHT22;9168;51.194;6.840;2022-09-09T04:09:25;17.70;99.90
18083;DHT22;9168;51.194;6.840;2022-09-09T04:11:53;17.60;99.90
18083;DHT22;9168;51.194;6.840;2022-09-09T04:14:20;17.70;99.90
18083;DHT22;9168;51.194;6.840;2022-09-09T04:16:47;17.70;99.90
18083;DHT22;9168;51.194;6.840;2022-09-09T04:19:14;17.70;99.90
18083;DHT22;9168;51.194;6.840;2022-09-09T04:21:41;17.70;99.90
18083;DHT22;9168;51.194;6.840;2022-09-09T04:24:08;17.70;99.90
18083;DHT22;9168;51.194;6.840;2022-09-09T04:26:36;17.80;99.90
18083;DHT22;9168;51.194;6.840;2022-09-09T04:29:04;17.70;99.90
18083;DHT22;9168;51.194;6.840;2022-09-09T04:31:32;17.70;99.90
18083;DHT22;9168;51.194;6.840;2022-09-09T04:33:59;17.60;99.90
18083;DHT22;9168;51.194;6.840;2022-09-09T04:36:30;17.60;99.90
18083;DHT22;9168;51.194;6.840;2022-09-09T04:38:58;17.60;99.90
18083;DHT22;9168;51.194;6.840;2022-09-09T04:41:25;17.60;99.90
18083;DHT22;9168;51.194;6.840;2022-09-09T04:43:52;17.70;99.90
18083;DHT22;9168;51.194;6.840;2022-09-09T04:46:20;17.70;99.90
18083;DHT22;9168;51.194;6.840;2022-09-09T04:48:48;17.70;99.90
18083;DHT22;9168;51.194;6.840;2022-09-09T04:51:15;17.70;99.90
18083;DHT22;9168;51.194;6.840;2022-09-09T04:53:42;17.80;99.90
18083;DHT22;9168;51.194;6.840;2022-09-09T04:56:12;17.80;99.90
18083;DHT22;9168;51.194;6.840;2022-09-09T04:58:40;17.80;99.90
18083;DHT22;9168;51.194;6.840;2022-09-09T05:01:10;17.80;99.90
18083;DHT22;9168;51.194;6.840;2022-09-09T05:03:39;17.80;99.90
18083;DHT22;9168;51.194;6.840;2022-09-09T05:06:07;17.80;99.90
18083;DHT22;9168;51.194;6.840;2022-09-09T05:08:35;17.80;99.90
18083;DHT22;9168;51.194;6.840;2022-09-09T05:11:02;17.90;99.90
18083;DHT22;9168;51.194;6.840;2022-09-09T05:13:29;17.90;99.90
18083;DHT22;9168;51.194;6.840;2022-09-09T05:15:57;17.90;99.90
18083;DHT22;9168;51.194;6.840;2022-09-09T05:18:24;17.90;99.90
18083;DHT22;9168;51.194;6.840;2022-09-09T05:20:58;17.90;99.90
18083;DHT22;9168;51.194;6.840;2022-09-09T05:23:25;17.90;99.90
18083;DHT22;9168;51.194;6.840;2022-09-09T05:25:56;17.90;99.90
18083;DHT22;9168;51.194;6.840;2022-09-09T05:28:24;17.90;99.90
18083;DHT22;9168;51.194;6.840;2022-09-09T05:30:59;17.90;99.90
18083;DHT22;9168;51.194;6.840;2022-09-09T05:33:27;17.90;99.90
18083;DHT22;9168;51.194;6.840;2022-09-09T05:35:59;17.90;99.90
18083;DHT22;9168;51.194;6.840;2022-09-09T05:38:27;17.90;99.90
18083;DHT22;9168;51.194;6.840;2022-09-09T05:40:54;17.90;99.90
18083;DHT22;9168;51.194;6.840;2022-09-09T05:43:23;17.90;99.90
18083;DHT22;9168;51.194;6.840;2022-09-09T05:45:59;18.00;99.90
18083;DHT22;9168;51.194;6.840;2022-09-09T05:48:28;18.00;99.90
18083;DHT22;9168;51.194;6.840;2022-09-09T05:50:56;18.00;99.90
18083;DHT22;9168;51.194;6.840;2022-09-09T05:53:24;18.00;99.90
18083;DHT22;9168;51.194;6.840;2022-09-09T05:55:58;18.00;99.90
18083;DHT22;9168;51.194;6.840;2022-09-09T05:58:25;18.00;99.90
18083;DHT22;9168;51.194;6.840;2022-09-09T06:00:53;18.00;99.90
18083;DHT22;9168;51.194;6.840;2022-09-09T06:03:26;18.00;99.90
18083;DHT22;9168;51.194;6.840;2022-09-09T06:05:57;18.00;99.90
18083;DHT22;9168;51.194;6.840;2022-09-09T06:08:26;18.00;99.90
18083;DHT22;9168;51.194;6.840;2022-09-09T06:10:53;18.00;99.90
18083;DHT22;9168;51.194;6.840;2022-09-09T06:13:20;18.10;99.90
18083;DHT22;9168;51.194;6.840;2022-09-09T06:15:50;18.10;99.90
18083;DHT22;9168;51.194;6.840;2022-09-09T06:18:18;18.10;99.90
18083;DHT22;9168;51.194;6.840;2022-09-09T06:20:53;18.10;99.90
18083;DHT22;9168;51.194;6.840;2022-09-09T06:23:20;18.10;99.90
18083;DHT22;9168;51.194;6.840;2022-09-09T06:25:48;18.10;99.90
18083;DHT22;9168;51.194;6.840;2022-09-09T06:28:16;18.10;99.90
18083;DHT22;9168;51.194;6.840;2022-09-09T06:30:44;18.20;99.90
18083;DHT22;9168;51.194;6.840;2022-09-09T06:33:12;18.20;99.90
18083;DHT22;9168;51.194;6.840;2022-09-09T06:35:39;18.10;99.90
18083;DHT22;9168;51.194;6.840;2022-09-09T06:38:06;18.10;99.90
18083;DHT22;9168;51.194;6.840;2022-09-09T06:40:34;18.10;99.90
18083;DHT22;9168;51.194;6.840;2022-09-09T06:43:02;18.10;99.90
18083;DHT22;9168;51.194;6.840;2022-09-09T06:45:29;18.00;99.90
18083;DHT22;9168;51.194;6.840;2022-09-09T06:47:56;18.00;99.90
18083;DHT22;9168;51.194;6.840;2022-09-09T06:50:23;18.00;99.90
18083;DHT22;9168;51.194;6.840;2022-09-09T06:52:50;18.00;99.90
18083;DHT22;9168;51.194;6.840;2022-09-09T06:55:17;18.00;99.90
18083;DHT22;9168;51.194;6.840;2022-09-09T06:57:45;18.00;99.90
18083;DHT22;9168;51.194;6.840;2022-09-09T07:00:13;18.00;99.90
18083;DHT22;9168;51.194;6.840;2022-09-09T07:02:40;18.00;99.90
18083;DHT22;9168;51.194;6.840;2022-09-09T07:05:08;18.10;99.90
18083;DHT22;9168;51.194;6.840;2022-09-09T07:07:35;18.10;99.90
18083;DHT22;9168;51.194;6.840;2022-09-09T07:10:03;18.20;99.90
18083;DHT22;9168;51.194;6.840;2022-09-09T07:12:30;18.30;99.90
18083;DHT22;9168;51.194;6.840;2022-09-09T07:14:57;18.40;99.90
18083;DHT22;9168;51.194;6.840;2022-09-09T07:17:26;18.40;99.90
18083;DHT22;9168;51.194;6.840;2022-09-09T07:19:53;18.50;99.90
18083;DHT22;9168;51.194;6.840;2022-09-09T07:22:21;18.50;99.90
18083;DHT22;9168;51.194;6.840;2022-09-09T07:24:48;18.50;99.90
18083;DHT22;9168;51.194;6.840;2022-09-09T07:27:15;18.50;99.90
18083;DHT22;9168;51.194;6.840;2022-09-09T07:29:42;18.60;99.90
18083;DHT22;9168;51.194;6.840;2022-09-09T07:32:08;18.50;99.90
18083;DHT22;9168;51.194;6.840;2022-09-09T07:34:37;18.50;99.90
18083;DHT22;9168;51.194;6.840;2022-09-09T07:37:04;18.50;99.90
18083;DHT22;9168;51.194;6.840;2022-09-09T07:39:30;18.50;99.90
18083;DHT22;9168;51.194;6.840;2022-09-09T07:41:57;18.60;99.90
18083;DHT22;9168;51.194;6.840;2022-09-09T07:44:25;18.60;99.90
18083;DHT22;9168;51.194;6.840;2022-09-09T07:46:52;18.70;99.90
18083;DHT22;9168;51.194;6.840;2022-09-09T07:49:19;18.80;99.90
18083;DHT22;9168;51.194;6.840;2022-09-09T07:51:47;18.80;99.90
18083;DHT22;9168;51.194;6.840;2022-09-09T07:54:16;18.80;99.90
18083;DHT22;9168;51.194;6.840;2022-09-09T07:56:46;18.80;99.90
18083;DHT22;9168;51.194;6.840;2022-09-09T07:59:13;18.80;99.90
18083;DHT22;9168;51.194;6.840;2022-09-09T08:01:42;18.70;99.90
18083;DHT22;9168;51.194;6.840;2022-09-09T08:04:11;18.80;99.90
18083;DHT22;9168;51.194;6.840;2022-09-09T08:06:43;18.80;99.90
18083;DHT22;9168;51.194;6.840;2022-09-09T08:09:12;18.90;99.90
18083;DHT22;9168;51.194;6.840;2022-09-09T08:11:40;18.90;99.90
18083;DHT22;9168;51.194;6.840;2022-09-09T08:14:08;18.90;99.90
18083;DHT22;9168;51.194;6.840;2022-09-09T08:16:37;18.90;99.90
18083;DHT22;9168;51.194;6.840;2022-09-09T08:19:06;18.90;99.90
18083;DHT22;9168;51.194;6.840;2022-09-09T08:21:35;18.90;99.90
18083;DHT22;9168;51.194;6.840;2022-09-09T08:24:02;19.00;99.90
18083;DHT22;9168;51.194;6.840;2022-09-09T08:26:33;19.10;99.90
18083;DHT22;9168;51.194;6.840;2022-09-09T08:29:02;19.10;99.90
18083;DHT22;9168;51.194;6.840;2022-09-09T08:31:31;19.20;99.90
18083;DHT22;9168;51.194;6.840;2022-09-09T08:33:59;19.20;99.90
18083;DHT22;9168;51.194;6.840;2022-09-09T08:36:28;19.30;99.90
18083;DHT22;9168;51.194;6.840;2022-09-09T08:38:57;19.40;99.90
18083;DHT22;9168;51.194;6.840;2022-09-09T08:41:43;19.40;99.90
18083;DHT22;9168;51.194;6.840;2022-09-09T08:44:21;19.40;99.90
18083;DHT22;9168;51.194;6.840;2022-09-09T08:46:54;19.50;99.90
18083;DHT22;9168;51.194;6.840;2022-09-09T08:49:41;19.50;99.90
18083;DHT22;9168;51.194;6.840;2022-09-09T08:52:13;19.60;99.90
18083;DHT22;9168;51.194;6.840;2022-09-09T08:54:43;19.60;99.90
18083;DHT22;9168;51.194;6.840;2022-09-09T08:57:18;19.60;99.90
18083;DHT22;9168;51.194;6.840;2022-09-09T08:59:46;19.70;99.90
18083;DHT22;9168;51.194;6.840;2022-09-09T09:02:17;19.70;99.90
18083;DHT22;9168;51.194;6.840;2022-09-09T09:05:06;19.70;99.90
18083;DHT22;9168;51.194;6.840;2022-09-09T09:07:46;19.70;99.90
18083;DHT22;9168;51.194;6.840;2022-09-09T09:10:28;19.70;99.90
18083;DHT22;9168;51.194;6.840;2022-09-09T09:13:01;19.70;99.90
18083;DHT22;9168;51.194;6.840;2022-09-09T09:15:33;19.70;99.90
18083;DHT22;9168;51.194;6.840;2022-09-09T09:18:02;19.70;99.90
18083;DHT22;9168;51.194;6.840;2022-09-09T09:20:36;19.60;99.90
18083;DHT22;9168;51.194;6.840;2022-09-09T09:23:05;19.60;99.90
18083;DHT22;9168;51.194;6.840;2022-09-09T09:25:35;19.60;99.90
18083;DHT22;9168;51.194;6.840;2022-09-09T09:28:16;19.60;99.90
18083;DHT22;9168;51.194;6.840;2022-09-09T09:30:47;19.50;99.90
18083;DHT22;9168;51.194;6.840;2022-09-09T09:33:21;19.60;99.90
18083;DHT22;9168;51.194;6.840;2022-09-09T09:35:49;19.60;99.90
18083;DHT22;9168;51.194;6.840;2022-09-09T09:38:19;19.60;99.90
18083;DHT22;9168;51.194;6.840;2022-09-09T09:40:51;19.70;99.90
18083;DHT22;9168;51.194;6.840;2022-09-09T09:43:23;19.80;99.90
18083;DHT22;9168;51.194;6.840;2022-09-09T09:45:51;19.90;99.90
18083;DHT22;9168;51.194;6.840;2022-09-09T09:48:18;20.00;99.90
18083;DHT22;9168;51.194;6.840;2022-09-09T09:50:51;20.00;99.90
18083;DHT22;9168;51.194;6.840;2022-09-09T09:53:25;20.10;99.90
18083;DHT22;9168;51.194;6.840;2022-09-09T09:55:55;20.10;99.90
18083;DHT22;9168;51.194;6.840;2022-09-09T09:58:25;20.20;99.90
18083;DHT22;9168;51.194;6.840;2022-09-09T10:00:54;20.40;99.90
18083;DHT22;9168;51.194;6.840;2022-09-09T10:03:24;20.50;99.90
18083;DHT22;9168;51.194;6.840;2022-09-09T10:05:52;20.60;99.90
18083;DHT22;9168;51.194;6.840;2022-09-09T10:08:20;20.70;99.90
18083;DHT22;9168;51.194;6.840;2022-09-09T10:10:57;20.70;99.90
18083;DHT22;9168;51.194;6.840;2022-09-09T10:13:32;20.80;99.90
18083;DHT22;9168;51.194;6.840;2022-09-09T10:16:15;20.70;99.90
18083;DHT22;9168;51.194;6.840;2022-09-09T10:18:56;20.70;99.90
18083;DHT22;9168;51.194;6.840;2022-09-09T10:21:46;20.80;99.90
18083;DHT22;9168;51.194;6.840;2022-09-09T10:24:36;20.90;99.90
18083;DHT22;9168;51.194;6.840;2022-09-09T10:27:14;21.00;99.90
18083;DHT22;9168;51.194;6.840;2022-09-09T10:30:04;21.20;99.90
18083;DHT22;9168;51.194;6.840;2022-09-09T10:32:40;21.10;99.90
18083;DHT22;9168;51.194;6.840;2022-09-09T10:35:14;21.00;99.90
18083;DHT22;9168;51.194;6.840;2022-09-09T10:38:05;20.90;99.90
18083;DHT22;9168;51.194;6.840;2022-09-09T10:40:41;20.90;99.90
18083;DHT22;9168;51.194;6.840;2022-09-09T10:43:16;20.90;99.90
18083;DHT22;9168;51.194;6.840;2022-09-09T10:45:58;20.90;99.90
18083;DHT22;9168;51.194;6.840;2022-09-09T10:48:36;20.80;99.90
18083;DHT22;9168;51.194;6.840;2022-09-09T10:51:21;20.70;99.90
18083;DHT22;9168;51.194;6.840;2022-09-09T10:53:58;20.80;99.90
18083;DHT22;9168;51.194;6.840;2022-09-09T10:56:30;20.80;99.90
18083;DHT22;9168;51.194;6.840;2022-09-09T10:59:00;20.70;99.90
18083;DHT22;9168;51.194;6.840;2022-09-09T11:01:36;20.70;99.90
18083;DHT22;9168;51.194;6.840;2022-09-09T11:04:09;20.60;99.90
18083;DHT22;9168;51.194;6.840;2022-09-09T11:06:41;20.50;99.90
18083;DHT22;9168;51.194;6.840;2022-09-09T11:09:13;20.50;99.90
18083;DHT22;9168;51.194;6.840;2022-09-09T11:11:47;20.50;99.90
18083;DHT22;9168;51.194;6.840;2022-09-09T11:14:21;20.50;99.90
18083;DHT22;9168;51.194;6.840;2022-09-09T11:16:53;20.50;99.90
18083;DHT22;9168;51.194;6.840;2022-09-09T11:19:26;20.50;99.90
18083;DHT22;9168;51.194;6.840;2022-09-09T11:21:55;20.40;99.90
18083;DHT22;9168;51.194;6.840;2022-09-09T11:24:26;20.40;99.90
18083;DHT22;9168;51.194;6.840;2022-09-09T11:26:58;20.40;99.90
18083;DHT22;9168;51.194;6.840;2022-09-09T11:33:11;20.20;99.90
18083;DHT22;9168;51.194;6.840;2022-09-09T11:35:52;19.90;99.90
18083;DHT22;9168;51.194;6.840;2022-09-09T11:38:26;19.90;99.90
18083;DHT22;9168;51.194;6.840;2022-09-09T11:40:58;19.90;99.90
18083;DHT22;9168;51.194;6.840;2022-09-09T11:43:29;19.90;99.90
18083;DHT22;9168;51.194;6.840;2022-09-09T11:46:00;20.00;99.90
18083;DHT22;9168;51.194;6.840;2022-09-09T11:48:32;20.20;99.90
18083;DHT22;9168;51.194;6.840;2022-09-09T11:51:03;20.40;99.90
18083;DHT22;9168;51.194;6.840;2022-09-09T11:53:31;20.50;99.90
18083;DHT22;9168;51.194;6.840;2022-09-09T11:56:04;20.50;99.90
18083;DHT22;9168;51.194;6.840;2022-09-09T11:58:37;20.40;99.90
18083;DHT22;9168;51.194;6.840;2022-09-09T12:01:25;20.40;99.90
18083;DHT22;9168;51.194;6.840;2022-09-09T12:06:45;20.20;99.90
18083;DHT22;9168;51.194;6.840;2022-09-09T12:09:23;20.20;99.90
18083;DHT22;9168;51.194;6.840;2022-09-09T12:11:51;20.00;99.90
18083;DHT22;9168;51.194;6.840;2022-09-09T12:14:21;20.00;99.90
18083;DHT22;9168;51.194;6.840;2022-09-09T12:16:48;19.90;99.90
18083;DHT22;9168;51.194;6.840;2022-09-09T12:19:20;20.10;99.90
18083;DHT22;9168;51.194;6.840;2022-09-09T12:21:53;20.50;99.90
18083;DHT22;9168;51.194;6.840;2022-09-09T12:24:27;20.90;99.90
18083;DHT22;9168;51.194;6.840;2022-09-09T12:26:59;21.40;99.90
18083;DHT22;9168;51.194;6.840;2022-09-09T12:29:36;21.40;99.90
18083;DHT22;9168;51.194;6.840;2022-09-09T12:32:07;21.40;99.90
18083;DHT22;9168;51.194;6.840;2022-09-09T12:34:41;21.40;99.90
18083;DHT22;9168;51.194;6.840;2022-09-09T12:37:15;21.30;99.90
18083;DHT22;9168;51.194;6.840;2022-09-09T12:39:47;21.10;99.90
18083;DHT22;9168;51.194;6.840;2022-09-09T12:42:18;21.10;99.90
18083;DHT22;9168;51.194;6.840;2022-09-09T12:44:56;21.10;99.90
18083;DHT22;9168;51.194;6.840;2022-09-09T12:47:28;21.10;99.90
18083;DHT22;9168;51.194;6.840;2022-09-09T12:49:58;21.10;99.90
18083;DHT22;9168;51.194;6.840;2022-09-09T12:52:29;21.10;99.90
18083;DHT22;9168;51.194;6.840;2022-09-09T12:54:59;21.00;99.90
18083;DHT22;9168;51.194;6.840;2022-09-09T12:57:33;20.90;99.90
18083;DHT22;9168;51.194;6.840;2022-09-09T13:00:10;20.70;99.90
18083;DHT22;9168;51.194;6.840;2022-09-09T13:02:46;20.60;99.90
18083;DHT22;9168;51.194;6.840;2022-09-09T13:05:19;19.80;99.90
18083;DHT22;9168;51.194;6.840;2022-09-09T13:07:46;19.30;99.90
18083;DHT22;9168;51.194;6.840;2022-09-09T13:10:15;19.30;99.90
18083;DHT22;9168;51.194;6.840;2022-09-09T13:12:44;19.50;99.90
18083;DHT22;9168;51.194;6.840;2022-09-09T13:15:17;19.60;99.90
18083;DHT22;9168;51.194;6.840;2022-09-09T13:17:50;19.60;99.90
18083;DHT22;9168;51.194;6.840;2022-09-09T13:20:20;19.60;99.90
18083;DHT22;9168;51.194;6.840;2022-09-09T13:22:49;19.50;99.90
18083;DHT22;9168;51.194;6.840;2022-09-09T13:25:24;19.30;99.90
18083;DHT22;9168;51.194;6.840;2022-09-09T13:27:54;19.30;99.90
18083;DHT22;9168;51.194;6.840;2022-09-09T13:30:24;19.20;99.90
18083;DHT22;9168;51.194;6.840;2022-09-09T13:33:06;19.20;99.90
18083;DHT22;9168;51.194;6.840;2022-09-09T13:35:36;19.20;99.90
18083;DHT22;9168;51.194;6.840;2022-09-09T13:38:13;19.20;99.90
18083;DHT22;9168;51.194;6.840;2022-09-09T13:40:41;19.30;99.90
18083;DHT22;9168;51.194;6.840;2022-09-09T13:43:22;19.30;99.90
18083;DHT22;9168;51.194;6.840;2022-09-09T13:45:56;19.50;99.90
18083;DHT22;9168;51.194;6.840;2022-09-09T13:48:24;19.80;99.90
18083;DHT22;9168;51.194;6.840;2022-09-09T13:50:58;20.30;99.90
18083;DHT22;9168;51.194;6.840;2022-09-09T13:53:25;20.40;99.90
18083;DHT22;9168;51.194;6.840;2022-09-09T13:55:53;20.40;99.90
18083;DHT22;9168;51.194;6.840;2022-09-09T13:58:20;20.30;99.90
18083;DHT22;9168;51.194;6.840;2022-09-09T14:00:48;20.20;99.90
18083;DHT22;9168;51.194;6.840;2022-09-09T14:03:15;20.20;99.90
18083;DHT22;9168;51.194;6.840;2022-09-09T14:05:43;20.10;99.90
18083;DHT22;9168;51.194;6.840;2022-09-09T14:08:19;19.90;99.90
18083;DHT22;9168;51.194;6.840;2022-09-09T14:10:46;19.90;99.90
18083;DHT22;9168;51.194;6.840;2022-09-09T14:13:13;20.00;99.90
18083;DHT22;9168;51.194;6.840;2022-09-09T14:15:41;20.00;99.90
18083;DHT22;9168;51.194;6.840;2022-09-09T14:18:11;20.20;99.90
18083;DHT22;9168;51.194;6.840;2022-09-09T14:20:39;20.50;99.90
18083;DHT22;9168;51.194;6.840;2022-09-09T14:23:07;20.60;99.90
18083;DHT22;9168;51.194;6.840;2022-09-09T14:25:39;20.70;99.90
18083;DHT22;9168;51.194;6.840;2022-09-09T14:28:09;21.00;99.90
18083;DHT22;9168;51.194;6.840;2022-09-09T14:30:37;21.40;99.90
18083;DHT22;9168;51.194;6.840;2022-09-09T14:33:04;21.50;99.90
18083;DHT22;9168;51.194;6.840;2022-09-09T14:35:31;21.30;99.90
18083;DHT22;9168;51.194;6.840;2022-09-09T14:37:59;21.10;99.90
18083;DHT22;9168;51.194;6.840;2022-09-09T14:40:26;20.90;99.90
18083;DHT22;9168;51.194;6.840;2022-09-09T14:42:54;20.60;99.90
18083;DHT22;9168;51.194;6.840;2022-09-09T14:45:22;20.50;99.90
18083;DHT22;9168;51.194;6.840;2022-09-09T14:47:50;20.20;99.90
18083;DHT22;9168;51.194;6.840;2022-09-09T14:50:18;19.90;99.90
18083;DHT22;9168;51.194;6.840;2022-09-09T14:52:45;19.60;99.90
18083;DHT22;9168;51.194;6.840;2022-09-09T14:55:12;19.10;99.90
18083;DHT22;9168;51.194;6.840;2022-09-09T14:57:39;18.60;99.90
18083;DHT22;9168;51.194;6.840;2022-09-09T15:00:09;18.30;99.90
18083;DHT22;9168;51.194;6.840;2022-09-09T15:02:36;18.00;99.90
18083;DHT22;9168;51.194;6.840;2022-09-09T15:05:04;17.80;99.90
18083;DHT22;9168;51.194;6.840;2022-09-09T15:07:31;17.60;99.90
18083;DHT22;9168;51.194;6.840;2022-09-09T15:09:58;17.50;99.90
18083;DHT22;9168;51.194;6.840;2022-09-09T15:12:24;17.50;99.90
18083;DHT22;9168;51.194;6.840;2022-09-09T15:14:53;17.40;99.90
18083;DHT22;9168;51.194;6.840;2022-09-09T15:17:22;17.40;99.90
18083;DHT22;9168;51.194;6.840;2022-09-09T15:19:52;17.40;99.90
18083;DHT22;9168;51.194;6.840;2022-09-09T15:22:20;17.60;99.90
18083;DHT22;9168;51.194;6.840;2022-09-09T15:24:47;17.60;99.90
18083;DHT22;9168;51.194;6.840;2022-09-09T15:27:14;17.60;99.90
18083;DHT22;9168;51.194;6.840;2022-09-09T15:29:41;17.70;99.90
18083;DHT22;9168;51.194;6.840;2022-09-09T15:32:09;17.70;99.90
18083;DHT22;9168;51.194;6.840;2022-09-09T15:34:37;17.80;99.90
18083;DHT22;9168;51.194;6.840;2022-09-09T15:37:05;17.80;99.90
18083;DHT22;9168;51.194;6.840;2022-09-09T15:39:33;17.90;99.90
18083;DHT22;9168;51.194;6.840;2022-09-09T15:41:59;17.90;99.90
18083;DHT22;9168;51.194;6.840;2022-09-09T15:44:27;17.90;99.90
18083;DHT22;9168;51.194;6.840;2022-09-09T15:46:54;17.90;99.90
18083;DHT22;9168;51.194;6.840;2022-09-09T15:49:22;17.90;99.90
18083;DHT22;9168;51.194;6.840;2022-09-09T15:51:53;17.80;99.90
18083;DHT22;9168;51.194;6.840;2022-09-09T15:54:22;17.70;99.90
18083;DHT22;9168;51.194;6.840;2022-09-09T15:56:51;17.60;99.90
18083;DHT22;9168;51.194;6.840;2022-09-09T15:59:20;17.60;99.90
18083;DHT22;9168;51.194;6.840;2022-09-09T16:01:47;17.50;99.90
18083;DHT22;9168;51.194;6.840;2022-09-09T16:04:17;17.40;99.90
18083;DHT22;9168;51.194;6.840;2022-09-09T16:06:49;17.40;99.90
18083;DHT22;9168;51.194;6.840;2022-09-09T16:09:19;17.40;99.90
18083;DHT22;9168;51.194;6.840;2022-09-09T16:11:46;17.40;99.90
18083;DHT22;9168;51.194;6.840;2022-09-09T16:14:14;17.30;99.90